Terminal Aerodrome Forecast
Issued by NWS

Home | Current Version | Previous Version | Text Only | Print | Product List | Glossary On
Versions: 1 2 3 4 5 6 7 8 9 10 11 12 13 14 15 16 17 18
000
FTUS43 KGRB 211730
TAFMTW
TAF
KMTW 211730Z 2118/2218 30017G28KT P6SM BKN045 OVC070
     FM212300 31012KT P6SM SCT045 BKN080
     FM220200 31009KT P6SM SKC
     FM221500 28005KT P6SM SCT040=

USA.gov is the U.S. government's official web portal to all federal, state and local government web resources and services.